createdAt,value
2023-06-09T00:02:24.607Z,99687.78
2023-06-09T00:05:26.841Z,99678.78
2023-06-09T00:08:28.559Z,99684.81
2023-06-09T00:11:30.292Z,99700.75
2023-06-09T00:14:31.998Z,99706.88
2023-06-09T00:17:35.123Z,99710.50
2023-06-09T00:20:37.097Z,99706.97
2023-06-09T00:23:38.857Z,99694.97
2023-06-09T00:26:40.603Z,99703.94
2023-06-09T00:29:42.572Z,99701.59
2023-06-09T00:32:45.943Z,99700.69
2023-06-09T00:35:47.673Z,99684.28
2023-06-09T00:38:49.586Z,99668.81
2023-06-09T00:41:51.540Z,99664.13
2023-06-09T00:44:53.697Z,99654.81
2023-06-09T00:47:56.926Z,99658.34
2023-06-09T00:50:58.478Z,99641.69
2023-06-09T00:54:00.249Z,99636.06
2023-06-09T00:57:02.239Z,99642.56
2023-06-09T01:00:04.955Z,99640.88
2023-06-09T01:03:08.117Z,99636.53
2023-06-09T01:06:19.437Z,99631.97
2023-06-09T01:09:26.580Z,99636.34
2023-06-09T01:12:35.236Z,99647.75
2023-06-09T01:15:44.354Z,99638.50
2023-06-09T01:18:49.485Z,99626.75
2023-06-09T01:21:54.834Z,99624.47
2023-06-09T01:25:06.953Z,99628.78
2023-06-09T01:28:13.444Z,99637.50
2023-06-09T01:31:16.079Z,99633.19
2023-06-09T01:34:18.761Z,99643.75
2023-06-09T01:37:21.216Z,99649.94
2023-06-09T01:40:23.122Z,99658.19
2023-06-09T01:43:26.282Z,99643.00
2023-06-09T01:46:28.212Z,99650.75
2023-06-09T01:49:38.315Z,99642.13
2023-06-09T01:52:43.882Z,99649.34
2023-06-09T01:55:51.949Z,99639.03
2023-06-09T01:58:58.466Z,99641.19
2023-06-09T02:02:02.896Z,99634.59
2023-06-09T02:05:08.037Z,99649.09
2023-06-09T02:08:10.735Z,99649.81
2023-06-09T02:11:12.890Z,99660.56
2023-06-09T02:14:16.315Z,99657.84
2023-06-09T02:17:18.383Z,99651.72
2023-06-09T02:20:20.112Z,99647.25
2023-06-09T02:23:23.792Z,99643.03
2023-06-09T02:26:25.527Z,99639.69
2023-06-09T02:29:28.666Z,99631.56
2023-06-09T02:32:30.658Z,99637.13
2023-06-09T02:35:32.641Z,99620.84
2023-06-09T02:38:34.427Z,99606.25
2023-06-09T02:41:36.136Z,99615.97
2023-06-09T02:44:39.672Z,99627.41
2023-06-09T02:47:41.609Z,99630.75
2023-06-09T02:50:43.409Z,99631.38
2023-06-09T02:53:45.217Z,99620.59
2023-06-09T02:56:47.085Z,99614.47
2023-06-09T02:59:50.137Z,99615.53
2023-06-09T03:02:51.822Z,99616.69
2023-06-09T03:05:53.512Z,99607.75
2023-06-09T03:08:55.513Z,99612.59
2023-06-09T03:11:57.444Z,99606.44
2023-06-09T03:15:00.604Z,99596.47
2023-06-09T03:18:02.463Z,99610.03
2023-06-09T03:21:04.257Z,99602.75
2023-06-09T03:24:07.186Z,99613.47
2023-06-09T03:27:09.037Z,99624.97
2023-06-09T03:30:13.059Z,99631.84
2023-06-09T03:33:15.447Z,99625.22
2023-06-09T03:36:17.171Z,99624.47
2023-06-09T03:39:18.871Z,99617.50
2023-06-09T03:42:20.726Z,99622.66
2023-06-09T03:45:23.996Z,99621.03
2023-06-09T03:48:26.524Z,99626.16
2023-06-09T03:51:28.305Z,99621.41
2023-06-09T03:54:30.292Z,99632.91
2023-06-09T03:57:32.119Z,99637.13
2023-06-09T04:00:35.185Z,99639.59
2023-06-09T04:03:36.963Z,99642.72
2023-06-09T04:06:38.677Z,99651.03
2023-06-09T04:09:40.360Z,99648.84
2023-06-09T04:12:42.356Z,99655.00
2023-06-09T04:15:45.468Z,99653.84
2023-06-09T04:18:47.190Z,99665.44
2023-06-09T04:21:49.322Z,99664.94
2023-06-09T04:24:51.024Z,99664.19
2023-06-09T04:27:53.039Z,99678.19
2023-06-09T04:30:56.179Z,99683.69
2023-06-09T04:33:57.931Z,99685.94
2023-06-09T04:36:59.642Z,99678.91
2023-06-09T04:40:01.358Z,99672.63
2023-06-09T04:43:03.133Z,99670.97
2023-06-09T04:46:06.294Z,99666.38
2023-06-09T04:49:08.515Z,99673.22
2023-06-09T04:52:10.298Z,99689.00
2023-06-09T04:55:12.376Z,99686.97
2023-06-09T04:58:14.101Z,99684.75
2023-06-09T05:01:17.275Z,99685.44
2023-06-09T05:04:19.095Z,99690.81
2023-06-09T05:07:20.871Z,99701.69
2023-06-09T05:10:22.584Z,99703.53
2023-06-09T05:13:24.362Z,99711.88
2023-06-09T05:16:27.693Z,99708.72
2023-06-09T05:19:29.485Z,99718.16
2023-06-09T05:22:31.276Z,99719.63
2023-06-09T05:25:33.146Z,99727.56
2023-06-09T05:28:35.106Z,99716.13
2023-06-09T05:31:38.270Z,99709.03
2023-06-09T05:34:39.787Z,99712.50
2023-06-09T05:37:49.404Z,99716.03
2023-06-09T05:40:51.105Z,99715.00
2023-06-09T05:43:52.795Z,99706.97
2023-06-09T05:46:56.056Z,99704.41
2023-06-09T05:49:57.795Z,99712.47
2023-06-09T05:52:59.788Z,99726.00
2023-06-09T05:56:01.818Z,99741.94
2023-06-09T05:59:03.837Z,99748.06
2023-06-09T06:02:07.157Z,99751.53
2023-06-09T06:05:10.039Z,99755.84
2023-06-09T06:08:11.789Z,99756.56
2023-06-09T06:11:13.722Z,99761.56
2023-06-09T06:14:15.398Z,99766.03
2023-06-09T06:17:18.544Z,99763.31
2023-06-09T06:20:20.444Z,99761.44
2023-06-09T06:23:22.303Z,99752.41
2023-06-09T06:26:24.500Z,99731.16
2023-06-09T06:29:26.463Z,99727.06
2023-06-09T06:32:29.581Z,99713.50
2023-06-09T06:35:31.591Z,99718.50
2023-06-09T06:38:33.817Z,99721.31
2023-06-09T06:41:35.464Z,99710.34
2023-06-09T06:44:37.158Z,99712.63
2023-06-09T06:47:41.122Z,99709.91
2023-06-09T06:50:43.149Z,99716.91
2023-06-09T06:53:44.955Z,99704.97
2023-06-09T06:56:46.790Z,99707.06
2023-06-09T06:59:48.831Z,99715.38
2023-06-09T07:02:52.216Z,99705.63
2023-06-09T07:05:54.738Z,99717.81
2023-06-09T07:08:56.929Z,99712.97
2023-06-09T07:11:59.322Z,99711.38
2023-06-09T07:15:01.318Z,99704.81
2023-06-09T07:18:05.133Z,99720.25
2023-06-09T07:21:07.249Z,99733.03
2023-06-09T07:24:09.414Z,99730.94
2023-06-09T07:27:11.487Z,99733.06
2023-06-09T07:30:13.801Z,99722.28
2023-06-09T07:33:17.028Z,99726.22
2023-06-09T07:36:18.858Z,99726.13
2023-06-09T07:39:20.825Z,99723.34
2023-06-09T07:42:22.525Z,99727.03
2023-06-09T07:45:24.431Z,99727.63
2023-06-09T07:48:27.823Z,99728.44
2023-06-09T07:51:29.681Z,99723.44
2023-06-09T07:54:31.427Z,99726.81
2023-06-09T07:57:33.402Z,99743.28
2023-06-09T08:00:35.346Z,99734.91
2023-06-09T08:03:38.500Z,99743.34
2023-06-09T08:06:40.036Z,99749.63
2023-06-09T08:09:41.859Z,99749.94
2023-06-09T08:12:43.935Z,99747.09
2023-06-09T08:15:45.728Z,99748.38
2023-06-09T08:18:48.902Z,99752.47
2023-06-09T08:21:50.644Z,99760.94
2023-06-09T08:24:52.449Z,99758.84
2023-06-09T08:27:54.374Z,99769.69
2023-06-09T08:30:56.391Z,99763.69
2023-06-09T08:33:59.647Z,99764.84
2023-06-09T08:37:01.502Z,99769.06
2023-06-09T08:40:03.588Z,99761.97
2023-06-09T08:43:05.536Z,99766.38
2023-06-09T08:46:10.773Z,99767.47
2023-06-09T08:49:16.545Z,99769.81
2023-06-09T08:52:19.104Z,99764.78
2023-06-09T08:55:21.067Z,99772.22
2023-06-09T08:58:22.819Z,99768.88
2023-06-09T09:01:25.150Z,99771.75
2023-06-09T09:04:28.416Z,99775.13
2023-06-09T09:07:30.525Z,99770.38
2023-06-09T09:10:32.492Z,99756.22
2023-06-09T09:13:34.518Z,99754.06
2023-06-09T09:16:44.028Z,99756.13
2023-06-09T09:19:48.273Z,99762.28
2023-06-09T09:22:54.023Z,99745.56
2023-06-09T09:25:55.761Z,99747.94
2023-06-09T09:29:00.987Z,99745.03
2023-06-09T09:32:02.741Z,99751.69
2023-06-09T09:35:07.271Z,99738.72
2023-06-09T09:38:13.443Z,99748.03
2023-06-09T09:41:15.690Z,99747.25
2023-06-09T09:44:18.484Z,99754.69
2023-06-09T09:47:20.348Z,99761.84
2023-06-09T09:50:24.331Z,99752.38
2023-06-09T09:53:28.215Z,99760.53
2023-06-09T09:56:30.758Z,99754.56
2023-06-09T09:59:32.708Z,99744.75
2023-06-09T10:02:42.952Z,99755.31
2023-06-09T10:05:49.099Z,99746.94
2023-06-09T10:08:52.470Z,99750.25
2023-06-09T10:11:55.820Z,99752.09
2023-06-09T10:14:58.146Z,99750.56
2023-06-09T10:18:01.280Z,99752.00
2023-06-09T10:21:04.427Z,99750.34
2023-06-09T10:24:12.691Z,99744.56
2023-06-09T10:27:14.865Z,99736.84
2023-06-09T10:30:16.747Z,99735.19
2023-06-09T10:33:23.633Z,99736.06
2023-06-09T10:36:35.610Z,99728.88
2023-06-09T10:39:51.197Z,99726.66
2023-06-09T10:43:04.730Z,99728.63
2023-06-09T10:46:06.864Z,99726.78
2023-06-09T10:49:09.696Z,99718.94
2023-06-09T10:52:44.787Z,99722.25
2023-06-09T10:55:48.294Z,99721.56
2023-06-09T10:58:50.009Z,99718.13
2023-06-09T11:02:21.284Z,99716.06
2023-06-09T11:05:41.547Z,99710.72
2023-06-09T11:09:07.979Z,99703.38
2023-06-09T11:12:22.622Z,99706.06
2023-06-09T11:15:44.881Z,99708.75
2023-06-09T11:19:08.097Z,99700.06
2023-06-09T11:22:10.464Z,99699.84
2023-06-09T11:25:34.874Z,99690.25
2023-06-09T11:28:40.855Z,99685.03
2023-06-09T11:31:52.220Z,99684.09
2023-06-09T11:34:55.416Z,99692.66
2023-06-09T11:37:58.466Z,99689.72
2023-06-09T11:41:01.958Z,99688.97
2023-06-09T11:44:04.521Z,99700.41
2023-06-09T11:47:24.593Z,99685.59
2023-06-09T11:50:36.207Z,99689.53
2023-06-09T11:53:38.028Z,99691.72
2023-06-09T11:56:40.028Z,99687.84
2023-06-09T11:59:45.967Z,99682.75
2023-06-09T12:02:49.066Z,99673.97
2023-06-09T12:05:53.606Z,99669.91
2023-06-09T12:09:20.928Z,99676.00
2023-06-09T12:12:22.440Z,99675.00
2023-06-09T12:15:26.307Z,99672.19
2023-06-09T12:18:28.942Z,99673.94
2023-06-09T12:21:34.296Z,99682.56
2023-06-09T12:24:36.110Z,99690.53
2023-06-09T12:27:37.889Z,99696.34
2023-06-09T12:30:40.844Z,99689.00
2023-06-09T12:33:47.102Z,99685.28
2023-06-09T12:36:50.731Z,99690.88
2023-06-09T12:40:03.414Z,99685.16
2023-06-09T12:43:06.456Z,99681.56
2023-06-09T12:46:08.602Z,99676.72
2023-06-09T12:49:11.567Z,99674.16
2023-06-09T12:52:14.780Z,99671.59
2023-06-09T12:55:16.479Z,99675.75
2023-06-09T12:58:18.250Z,99665.03
2023-06-09T13:01:21.404Z,99668.28
2023-06-09T13:04:25.087Z,99652.09
2023-06-09T13:07:28.302Z,99654.56
2023-06-09T13:10:30.160Z,99650.63
2023-06-09T13:13:34.785Z,99643.31
2023-06-09T13:16:36.989Z,99649.75
2023-06-09T13:19:38.904Z,99649.09
2023-06-09T13:22:42.701Z,99642.44
2023-06-09T13:25:45.515Z,99643.53
2023-06-09T13:28:47.274Z,99641.72
2023-06-09T13:31:48.984Z,99637.75
2023-06-09T13:34:52.979Z,99642.03
2023-06-09T13:37:56.594Z,99630.78
2023-06-09T13:40:58.655Z,99630.78
2023-06-09T13:44:00.686Z,99628.22
2023-06-09T13:47:02.563Z,99615.41
2023-06-09T13:50:04.923Z,99614.59
2023-06-09T13:53:08.111Z,99621.56
2023-06-09T13:56:09.696Z,99618.50
2023-06-09T13:59:11.725Z,99616.41
2023-06-09T14:02:13.572Z,99618.97
2023-06-09T14:05:15.582Z,99622.38
2023-06-09T14:08:19.136Z,99628.41
2023-06-09T14:11:23.212Z,99617.75
2023-06-09T14:14:25.340Z,99614.22
2023-06-09T14:17:27.516Z,99609.94
2023-06-09T14:20:29.450Z,99616.91
2023-06-09T14:23:32.721Z,99616.09
2023-06-09T14:26:34.496Z,99610.53
2023-06-09T14:29:36.270Z,99612.22
2023-06-09T14:32:38.503Z,99616.75
2023-06-09T14:35:40.902Z,99617.94
2023-06-09T14:38:44.000Z,99627.50
2023-06-09T14:41:46.165Z,99621.16
2023-06-09T14:44:48.428Z,99617.53
2023-06-09T14:47:51.947Z,99612.28
2023-06-09T14:50:53.834Z,99610.41
2023-06-09T14:53:57.165Z,99614.16
2023-06-09T14:56:58.952Z,99613.22
2023-06-09T15:00:01.240Z,99607.84
2023-06-09T15:03:03.924Z,99612.47
2023-06-09T15:06:08.818Z,99598.41
2023-06-09T15:09:12.267Z,99605.31
2023-06-09T15:12:16.496Z,99603.59
2023-06-09T15:15:20.043Z,99603.38
2023-06-09T15:18:21.872Z,99601.50
2023-06-09T15:21:23.747Z,99597.53
2023-06-09T15:24:27.023Z,99594.75
2023-06-09T15:27:29.015Z,99599.09
2023-06-09T15:30:32.779Z,99592.88
2023-06-09T15:33:34.583Z,99596.34
2023-06-09T15:36:36.338Z,99584.84
2023-06-09T15:39:39.572Z,99585.09
2023-06-09T15:42:41.258Z,99576.22
2023-06-09T15:45:44.873Z,99572.41
2023-06-09T15:48:46.652Z,99556.09
2023-06-09T15:51:48.348Z,99562.19
2023-06-09T15:54:51.393Z,99560.09
2023-06-09T15:57:53.106Z,99555.69
2023-06-09T16:00:54.875Z,99554.88
2023-06-09T16:03:56.699Z,99543.53
2023-06-09T16:06:58.543Z,99550.78
2023-06-09T16:10:01.715Z,99550.13
2023-06-09T16:13:05.846Z,99553.31
2023-06-09T16:16:07.618Z,99548.63
2023-06-09T16:19:09.340Z,99553.16
2023-06-09T16:22:11.560Z,99542.63
2023-06-09T16:25:14.704Z,99541.94
2023-06-09T16:28:16.224Z,99544.16
2023-06-09T16:31:25.232Z,99549.19
2023-06-09T16:34:26.991Z,99548.31
2023-06-09T16:37:30.046Z,99546.34
2023-06-09T16:40:33.449Z,99545.94
2023-06-09T16:43:35.200Z,99551.31
2023-06-09T16:46:37.214Z,99560.44
2023-06-09T16:49:39.280Z,99567.34
2023-06-09T16:52:41.123Z,99572.41
2023-06-09T16:55:44.216Z,99571.13
2023-06-09T16:58:45.680Z,99581.66
2023-06-09T17:01:47.232Z,99572.81
2023-06-09T17:04:48.969Z,99566.09
2023-06-09T17:07:51.005Z,99586.06
2023-06-09T17:10:54.556Z,99591.50
2023-06-09T17:13:56.390Z,99586.25
2023-06-09T17:16:58.143Z,99577.34
2023-06-09T17:20:00.213Z,99579.47
2023-06-09T17:23:02.076Z,99564.63
2023-06-09T17:26:05.330Z,99574.00
2023-06-09T17:29:07.349Z,99572.53
2023-06-09T17:32:09.902Z,99561.34
2023-06-09T17:35:12.117Z,99571.38
2023-06-09T17:38:13.896Z,99579.25
2023-06-09T17:41:18.922Z,99577.00
2023-06-09T17:44:20.807Z,99574.66
2023-06-09T17:47:22.598Z,99575.00
2023-06-09T17:50:24.390Z,99575.75
2023-06-09T17:53:26.118Z,99574.88
2023-06-09T17:56:29.113Z,99576.41
2023-06-09T17:59:30.843Z,99578.72
2023-06-09T18:02:32.919Z,99582.50
2023-06-09T18:05:34.806Z,99577.63
2023-06-09T18:08:36.641Z,99578.09
2023-06-09T18:11:40.207Z,99584.59
2023-06-09T18:14:42.379Z,99592.41
2023-06-09T18:17:44.426Z,99591.59
2023-06-09T18:20:46.283Z,99595.16
2023-06-09T18:23:47.997Z,99592.41
2023-06-09T18:26:51.135Z,99597.78
2023-06-09T18:29:52.738Z,99601.84
2023-06-09T18:32:54.548Z,99596.84
2023-06-09T18:35:56.304Z,99599.31
2023-06-09T18:38:58.829Z,99599.06
2023-06-09T18:42:02.033Z,99594.38
2023-06-09T18:45:04.523Z,99601.16
2023-06-09T18:48:06.687Z,99594.44
2023-06-09T18:51:08.866Z,99594.69
2023-06-09T18:54:10.594Z,99601.16
2023-06-09T18:57:13.986Z,99607.50
2023-06-09T19:00:16.541Z,99607.63
2023-06-09T19:03:18.360Z,99604.94
2023-06-09T19:06:20.228Z,99606.75
2023-06-09T19:09:22.109Z,99607.91
2023-06-09T19:12:25.269Z,99607.16
2023-06-09T19:15:27.354Z,99610.03
2023-06-09T19:18:29.068Z,99620.63
2023-06-09T19:21:30.774Z,99614.38
2023-06-09T19:24:32.497Z,99623.34
2023-06-09T19:27:35.566Z,99630.63
2023-06-09T19:30:37.636Z,99621.44
2023-06-09T19:33:39.580Z,99630.50
2023-06-09T19:36:41.578Z,99633.13
2023-06-09T19:39:43.314Z,99629.78
2023-06-09T19:42:46.761Z,99633.75
2023-06-09T19:45:48.660Z,99628.47
2023-06-09T19:48:50.731Z,99627.00
2023-06-09T19:51:52.581Z,99628.06
2023-06-09T19:54:54.695Z,99630.09
2023-06-09T19:57:58.051Z,99631.22
2023-06-09T20:01:00.009Z,99637.78
2023-06-09T20:04:01.884Z,99632.91
2023-06-09T20:07:04.079Z,99639.41
2023-06-09T20:10:06.996Z,99634.91
2023-06-09T20:13:10.097Z,99634.06
2023-06-09T20:16:11.881Z,99631.53
2023-06-09T20:19:13.658Z,99630.47
2023-06-09T20:22:15.431Z,99623.28
2023-06-09T20:25:17.241Z,99631.53
2023-06-09T20:28:20.321Z,99628.25
2023-06-09T20:31:22.074Z,99630.66
2023-06-09T20:34:23.821Z,99634.09
2023-06-09T20:37:25.494Z,99626.34
2023-06-09T20:40:27.210Z,99630.22
2023-06-09T20:43:30.399Z,99634.81
2023-06-09T20:46:32.086Z,99634.66
2023-06-09T20:49:33.834Z,99629.75
2023-06-09T20:52:35.728Z,99627.72
2023-06-09T20:55:37.614Z,99623.50
2023-06-09T20:58:42.686Z,99628.00
2023-06-09T21:01:44.417Z,99627.03
2023-06-09T21:04:46.148Z,99631.56
2023-06-09T21:07:47.904Z,99625.97
2023-06-09T21:10:49.643Z,99622.47
2023-06-09T21:13:53.874Z,99628.66
2023-06-09T21:16:55.579Z,99626.84
2023-06-09T21:19:57.316Z,99629.03
2023-06-09T21:22:59.268Z,99633.72
2023-06-09T21:26:00.994Z,99630.88
2023-06-09T21:29:04.333Z,99628.38
2023-06-09T21:32:07.176Z,99630.88
2023-06-09T21:35:10.368Z,99628.25
2023-06-09T21:38:12.636Z,99625.63
2023-06-09T21:41:14.377Z,99621.88
2023-06-09T21:44:17.484Z,99626.31
2023-06-09T21:47:19.570Z,99622.88
2023-06-09T21:50:21.668Z,99614.59
2023-06-09T21:53:23.709Z,99619.41
2023-06-09T21:56:25.424Z,99620.16
2023-06-09T21:59:28.521Z,99611.84
2023-06-09T22:02:30.232Z,99614.13
2023-06-09T22:05:31.962Z,99607.66
2023-06-09T22:08:35.325Z,99613.22
2023-06-09T22:11:39.442Z,99611.88
2023-06-09T22:14:42.528Z,99618.28
2023-06-09T22:17:44.333Z,99611.22
2023-06-09T22:20:46.128Z,99606.19
2023-06-09T22:23:48.218Z,99612.59
2023-06-09T22:26:59.951Z,99609.41
2023-06-09T22:30:05.472Z,99606.94
2023-06-09T22:33:07.583Z,99603.28
2023-06-09T22:36:09.410Z,99604.72
2023-06-09T22:39:11.150Z,99597.84
2023-06-09T22:42:12.888Z,99593.75
2023-06-09T22:45:16.215Z,99606.16
2023-06-09T22:48:17.818Z,99607.19
2023-06-09T22:51:19.321Z,99605.50
2023-06-09T22:54:21.047Z,99611.31
2023-06-09T22:57:22.858Z,99611.53
2023-06-09T23:00:25.952Z,99610.78
2023-06-09T23:03:28.136Z,99610.00
2023-06-09T23:06:30.121Z,99604.69
2023-06-09T23:09:31.902Z,99612.50
2023-06-09T23:12:33.664Z,99612.50
2023-06-09T23:15:36.786Z,99619.50
2023-06-09T23:18:38.500Z,99621.16
2023-06-09T23:21:40.221Z,99623.41
2023-06-09T23:24:42.625Z,99619.59
2023-06-09T23:27:44.764Z,99614.16
2023-06-09T23:30:48.033Z,99615.94
2023-06-09T23:33:49.817Z,99609.72
2023-06-09T23:36:51.754Z,99614.84
2023-06-09T23:39:53.497Z,99610.34
2023-06-09T23:42:55.240Z,99600.75
2023-06-09T23:45:58.333Z,99599.09
2023-06-09T23:49:00.325Z,99597.34
2023-06-09T23:52:02.127Z,99593.78
2023-06-09T23:55:04.153Z,99597.28
2023-06-09T23:58:05.812Z,99597.13
